Latest Weather Observations for Legendre Island

IDW60801

Issued at 9:32 pm WST Tuesday 12 December 2017 (issued every 30 minutes, with the page automatically refreshed every 10 minutes)

About weather observations | Map of weather stations | Latest weather observations for WA | Other Formats
Station Details ID: 004095 Name: LEGENDRE ISLAND Lat: -20.36 Lon: 116.84 Height: 29.0 m
Data from the previous 72 hours. | See also: Recent months at Legendre Island
Date/Time
WST
Temp
°C
App
Temp
°C
Dew
Point
°C
Rel
Hum
%
Delta-T
°C
Wind Press
QNH
hPa
Press
MSL
hPa
Rain since
9am
mm
Dir  Spd
km/h
Gust
km/h
Spd
kts
Gust
kts
12/09:30pm 26.0 25.4 22.7 82 2.2 W 30 35 16 19 1010.2 1010.0 -
12/09:00pm 26.0 25.5 22.1 79 2.6 W 28 33 15 18 1010.1 1009.9 -
12/08:30pm 26.2 25.7 21.4 75 3.2 W 26 30 14 16 1009.8 1009.6 -
12/08:00pm 26.4 25.2 20.9 72 3.6 W 28 33 15 18 1009.6 1009.4 -
12/07:30pm 26.3 24.6 19.9 68 4.2 W 28 33 15 18 1009.2 1009.0 -
12/07:00pm 26.6 25.1 19.5 65 4.6 W 26 32 14 17 1009.0 1008.8 -
12/06:30pm 27.0 25.0 19.1 62 5.1 W 28 32 15 17 1008.6 1008.4 -
12/06:00pm 27.7 25.6 19.0 59 5.6 W 28 33 15 18 1008.8 1008.6 -
12/05:30pm 28.3 26.2 19.8 60 5.6 W 30 37 16 20 1008.8 1008.6 -
12/05:00pm 28.5 26.1 19.2 57 6.0 W 30 35 16 19 1008.9 1008.7 -
12/04:30pm 29.3 26.9 19.9 57 6.2 W 32 39 17 21 1009.2 1009.0 -
12/04:00pm 29.8 27.6 20.4 57 6.2 W 32 39 17 21 1009.2 1009.0 -
12/03:30pm 29.3 27.2 20.5 59 5.8 W 32 37 17 20 1009.5 1009.3 -
12/03:00pm 29.9 28.0 20.2 56 6.4 W 30 35 16 19 1009.8 1009.6 -
12/02:30pm 29.8 27.6 20.4 57 6.2 W 32 37 17 20 1009.9 1009.7 -
12/02:00pm 30.2 28.4 20.4 55 6.5 W 30 35 16 19 1010.2 1010.0 -
12/01:30pm 29.4 27.6 20.3 58 6.0 W 30 37 16 20 1010.5 1010.3 -
12/01:00pm 29.7 27.7 20.0 56 6.4 W 30 35 16 19 1010.9 1010.7 -
12/12:30pm 29.7 27.2 19.7 55 6.5 W 32 35 17 19 1011.2 1011.0 -
12/12:00pm 30.1 28.3 19.5 53 6.9 W 28 33 15 18 1011.5 1011.3 -
12/11:30am 29.6 27.4 18.7 52 7.0 W 28 33 15 18 1011.7 1011.5 -
12/11:00am 30.3 27.7 17.7 46 8.0 WSW 28 32 15 17 1012.0 1011.8 -
12/10:30am 29.7 26.7 17.8 48 7.6 WSW 30 35 16 19 1012.2 1012.0 -
12/10:00am 28.9 26.3 17.7 50 7.1 SW 28 35 15 19 1012.4 1012.2 -
12/09:30am 28.8 27.1 18.9 55 6.4 WSW 26 33 14 18 1012.8 1012.6 -
12/09:00am 28.6 26.6 19.2 56 6.1 SW 28 35 15 19 1012.9 1012.7 -
12/08:30am 27.7 25.6 19.0 59 5.6 WSW 28 37 15 20 1012.7 1012.5 -
12/08:00am 27.5 26.2 20.6 66 4.5 SW 28 35 15 19 1012.6 1012.4 -
12/07:30am 27.1 26.5 21.2 70 3.9 SW 26 33 14 18 1012.8 1012.6 -
12/07:00am 26.5 25.5 21.3 73 3.5 SW 28 35 15 19 1012.6 1012.4 -
12/06:30am 25.8 26.2 21.7 78 2.7 WSW 22 28 12 15 1012.6 1012.4 -
12/06:00am 25.4 25.2 21.3 78 2.7 WSW 24 32 13 17 1012.4 1012.2 -
12/05:30am 25.2 24.2 21.3 79 2.6 W 28 33 15 18 1012.0 1011.8 -
12/05:00am 25.1 24.6 21.4 80 2.5 WSW 26 33 14 18 1011.5 1011.3 -
12/04:30am 25.2 24.9 21.9 82 2.2 W 26 33 14 18 1011.2 1011.0 -
12/04:00am 25.1 24.8 21.8 82 2.2 WSW 26 32 14 17 1011.1 1010.9 -
12/03:30am 25.2 24.8 21.7 81 2.3 WSW 26 32 14 17 1011.0 1010.8 -
12/03:00am 25.2 24.4 21.7 81 2.3 WSW 28 35 15 19 1010.9 1010.7 -
12/02:30am 25.3 24.7 22.0 82 2.2 WSW 28 35 15 19 1010.8 1010.6 -
12/02:00am 25.3 24.2 21.8 81 2.3 WSW 30 35 16 19 1010.9 1010.7 -
12/01:30am 25.4 25.1 21.9 81 2.3 WSW 26 32 14 17 1011.0 1010.8 -
12/01:00am 25.4 24.6 21.7 80 2.5 WSW 28 32 15 17 1011.1 1010.9 -
12/12:30am 25.4 25.3 21.5 79 2.6 WSW 24 30 13 16 1011.3 1011.1 -
12/12:00am 25.4 24.9 21.5 79 2.6 WSW 26 32 14 17 1011.4 1011.2 -
 
Date/Time
WST
Temp
°C
App
Temp
°C
Dew
Point
°C
Rel
Hum
%
Delta-T
°C
Wind Press
QNH
hPa
Press
MSL
hPa
Rain since
9am
mm
Dir  Spd
km/h
Gust
km/h
Spd
kts
Gust
kts
11/11:30pm 25.5 24.2 21.4 78 2.7 WSW 30 35 16 19 1011.7 1011.5 -
11/11:00pm 25.6 24.0 21.5 78 2.7 WSW 32 39 17 21 1011.7 1011.5 -
11/10:30pm 25.7 24.0 21.4 77 2.9 WSW 32 39 17 21 1012.1 1011.9 -
11/10:00pm 25.8 23.7 21.0 75 3.2 WSW 33 39 18 21 1012.0 1011.8 -
11/09:30pm 25.9 24.3 20.7 73 3.4 WSW 30 37 16 20 1012.1 1011.9 -
11/09:00pm 25.9 24.2 20.5 72 3.5 WSW 30 33 16 18 1012.0 1011.8 -
11/08:30pm 26.0 24.9 20.3 71 3.7 W 26 32 14 17 1012.1 1011.9 -
11/08:00pm 26.0 25.0 19.6 68 4.1 W 24 30 13 16 1012.0 1011.8 -
11/07:30pm 26.1 25.2 19.0 65 4.6 W 22 28 12 15 1011.9 1011.7 -
11/07:00pm 26.0 24.9 19.4 67 4.3 W 24 28 13 15 1011.4 1011.2 -
11/06:30pm 26.4 25.2 20.0 68 4.2 W 26 32 14 17 1010.9 1010.7 -
11/06:00pm 27.1 26.5 20.4 66 4.4 W 24 32 13 17 1010.6 1010.4 -
11/05:30pm 27.8 26.4 20.4 64 4.9 W 28 33 15 18 1010.2 1010.0 -
11/05:00pm 28.1 26.7 20.4 63 5.1 W 28 32 15 17 1010.1 1009.9 -
11/04:30pm 28.6 26.9 19.8 59 5.8 W 28 33 15 18 1010.0 1009.8 -
11/04:00pm 29.0 27.3 19.9 58 6.0 W 28 33 15 18 1010.1 1009.9 -
11/03:30pm 29.4 28.3 20.3 58 6.0 WSW 26 30 14 16 1010.0 1009.8 -
11/03:00pm 29.3 28.0 19.9 57 6.2 WSW 26 32 14 17 1010.0 1009.8 -
11/02:30pm 30.1 29.3 20.1 55 6.6 W 24 30 13 16 1010.4 1010.2 -
11/02:00pm 29.7 29.1 19.7 55 6.6 W 22 30 12 16 1010.5 1010.3 -
11/01:30pm 29.7 28.7 19.7 55 6.5 WSW 24 32 13 17 1010.7 1010.5 -
11/01:00pm 30.0 29.3 19.4 53 6.9 WSW 22 28 12 15 1010.9 1010.7 -
11/12:30pm 30.1 29.9 19.8 54 6.8 WSW 20 26 11 14 1011.4 1011.2 -
11/12:00pm 29.7 29.0 19.4 54 6.7 WSW 22 28 12 15 1011.8 1011.6 -
11/11:30am 29.1 28.6 19.1 54 6.5 WSW 20 26 11 14 1012.1 1011.9 -
11/11:00am 29.5 29.4 19.5 55 6.5 WSW 19 22 10 12 1012.5 1012.3 -
11/10:30am 29.1 28.2 19.1 54 6.5 WSW 22 26 12 14 1012.6 1012.4 -
11/10:00am 28.9 27.8 19.5 57 6.1 WSW 24 30 13 16 1012.7 1012.5 -
11/09:30am 28.5 28.1 19.4 57 5.9 WSW 20 26 11 14 1013.0 1012.8 -
11/09:00am 28.5 28.3 19.7 59 5.7 WSW 20 26 11 14 1013.0 1012.8 -
11/08:30am 28.0 27.7 20.3 63 5.1 WSW 22 30 12 16 1013.0 1012.8 -
11/08:00am 27.9 27.7 21.2 67 4.5 WSW 24 30 13 16 1012.8 1012.6 -
11/07:30am 27.1 26.2 20.7 68 4.2 WSW 26 30 14 16 1012.7 1012.5 -
11/07:00am 26.2 25.1 20.3 70 3.9 WSW 26 32 14 17 1012.4 1012.2 -
11/06:30am 26.0 25.0 21.2 75 3.2 WSW 28 33 15 18 1011.9 1011.7 -
11/06:00am 25.3 25.3 21.0 77 2.8 WSW 22 28 12 15 1012.1 1011.9 -
11/05:30am 25.0 24.6 20.9 78 2.7 WSW 24 30 13 16 1011.8 1011.6 -
11/05:00am 24.9 24.8 20.8 78 2.7 WSW 22 28 12 15 1011.5 1011.3 -
11/04:30am 24.9 24.9 21.0 79 2.6 WSW 22 30 12 16 1011.1 1010.9 -
11/04:00am 24.9 24.7 21.2 80 2.4 WSW 24 30 13 16 1010.9 1010.7 -
11/03:30am 24.9 24.9 21.0 79 2.6 WSW 22 28 12 15 1010.9 1010.7 -
11/03:00am 25.0 25.1 21.1 79 2.6 WSW 22 26 12 14 1010.9 1010.7 -
11/02:30am 24.9 24.8 20.8 78 2.7 WSW 22 28 12 15 1011.0 1010.8 -
11/02:00am 25.0 24.5 20.7 77 2.8 WSW 24 30 13 16 1010.9 1010.7 -
11/01:30am 25.1 24.2 20.6 76 2.9 WSW 26 32 14 17 1011.0 1010.8 -
11/01:00am 25.2 24.3 20.7 76 3.0 WSW 26 33 14 18 1011.3 1011.1 -
11/12:30am 25.3 24.8 20.8 76 3.0 WSW 24 30 13 16 1011.6 1011.4 -
11/12:00am 25.2 25.1 20.7 76 3.0 W 22 28 12 15 1012.1 1011.9 -
 
Date/Time
WST
Temp
°C
App
Temp
°C
Dew
Point
°C
Rel
Hum
%
Delta-T
°C
Wind Press
QNH
hPa
Press
MSL
hPa
Rain since
9am
mm
Dir  Spd
km/h
Gust
km/h
Spd
kts
Gust
kts
10/11:30pm 25.5 24.2 20.7 75 3.2 WSW 28 33 15 18 1012.1 1011.9 -
10/11:00pm 25.5 24.1 20.5 74 3.3 WSW 28 33 15 18 1012.3 1012.1 -
10/10:30pm 25.6 24.2 20.4 73 3.4 WSW 28 35 15 19 1012.3 1012.1 -
10/10:00pm 25.8 24.5 20.6 73 3.4 WSW 28 32 15 17 1012.3 1012.1 -
10/09:30pm 25.8 24.6 20.1 71 3.7 WSW 26 32 14 17 1012.0 1011.8 -
10/09:00pm 25.9 24.8 20.2 71 3.7 W 26 32 14 17 1011.9 1011.7 -
10/08:30pm 25.9 25.1 20.0 70 3.8 W 24 32 13 17 1011.8 1011.6 -
10/08:00pm 26.0 25.1 19.9 69 4.0 W 24 30 13 16 1011.7 1011.5 -
10/07:30pm 25.9 25.3 19.8 69 4.0 W 22 28 12 15 1011.4 1011.2 -
10/07:00pm 26.0 24.8 20.1 70 3.8 W 26 30 14 16 1011.1 1010.9 -
10/06:30pm 26.5 26.0 19.9 67 4.3 W 22 28 12 15 1011.0 1010.8 -
10/06:00pm 27.3 27.0 20.4 66 4.5 W 22 28 12 15 1010.8 1010.6 -
10/05:30pm 27.7 27.4 20.3 64 4.9 W 22 28 12 15 1010.8 1010.6 -
10/05:00pm 28.3 26.6 19.8 60 5.6 W 28 33 15 18 1010.5 1010.3 -
10/04:30pm 29.2 28.0 20.1 58 6.0 W 26 32 14 17 1010.3 1010.1 -
10/04:00pm 29.5 28.0 19.5 55 6.5 WNW 26 32 14 17 1010.4 1010.2 -
10/03:30pm 29.3 28.1 19.3 55 6.5 WNW 24 30 13 16 1010.7 1010.5 -
10/03:00pm 29.1 28.4 20.3 59 5.8 NW 24 30 13 16 1010.8 1010.6 -
10/02:30pm 29.6 28.7 20.7 58 5.9 WNW 26 30 14 16 1011.0 1010.8 -
10/02:00pm 30.0 28.9 21.1 59 6.0 W 28 35 15 19 1010.3 1010.1 -
10/01:30pm 30.6 28.9 20.5 54 6.7 WNW 30 37 16 20 1010.2 1010.0 -
10/01:00pm 30.9 29.0 20.2 53 7.1 W 30 35 16 19 1010.3 1010.1 -
10/12:30pm 30.9 30.7 20.5 54 6.9 WNW 22 28 12 15 1010.8 1010.6 -
10/12:00pm 30.1 30.1 20.1 55 6.6 WNW 20 28 11 15 1011.2 1011.0 -
10/11:30am 29.8 30.2 19.8 55 6.6 WSW 17 22 9 12 1011.5 1011.3 -
10/11:00am 29.2 30.0 19.8 57 6.2 WSW 15 22 8 12 1011.8 1011.6 -
10/10:30am 29.5 29.9 19.8 56 6.4 WSW 17 24 9 13 1012.0 1011.8 -
10/10:00am 29.6 29.8 20.2 57 6.2 SW 19 22 10 12 1011.9 1011.7 -
10/09:30am 28.6 28.9 20.3 60 5.5 SW 19 26 10 14 1012.0 1011.8 -
10/09:00am 28.0 26.7 20.6 64 4.9 SW 28 35 15 19 1010.9 1010.7 -
10/08:30am 27.6 26.4 20.9 67 4.4 SW 28 37 15 20 1011.0 1010.8 -
10/08:00am 27.2 26.1 21.0 69 4.1 SW 28 35 15 19 1011.1 1010.9 -
10/07:30am 26.4 24.8 21.6 75 3.2 SW 32 39 17 21 1010.6 1010.4 -
10/07:00am 26.2 24.8 22.3 79 2.6 SW 33 41 18 22 1010.0 1009.8 -
10/06:30am 26.0 24.5 22.7 82 2.2 SW 35 46 19 25 1009.5 1009.3 -
10/06:00am 25.6 23.5 21.7 79 2.6 WSW 35 46 19 25 1009.3 1009.1 -
10/05:30am 25.4 22.3 21.9 81 2.3 WSW 41 54 22 29 1008.5 1008.3 -
10/05:00am 25.3 21.8 21.8 81 2.3 WSW 43 52 23 28 1008.0 1007.8 -
10/04:30am 25.4 22.4 22.1 82 2.2 WSW 41 52 22 28 1008.0 1007.8 -
10/04:00am 25.5 22.4 22.6 84 2.0 WSW 43 52 23 28 1008.1 1007.9 -
10/03:30am 25.4 23.4 22.5 84 2.0 WSW 37 46 20 25 1008.4 1008.2 -
10/03:00am 25.5 24.0 22.8 85 1.8 WSW 35 43 19 23 1008.7 1008.5 -
10/02:30am 25.5 24.7 23.4 88 1.4 WSW 33 41 18 22 1008.7 1008.5 -
10/02:00am 25.5 24.6 23.2 87 1.6 WSW 33 43 18 23 1008.8 1008.6 -
10/01:30am 25.5 25.3 23.4 88 1.4 WSW 30 35 16 19 1009.1 1008.9 -
10/01:00am 25.6 25.0 23.3 87 1.6 WSW 32 37 17 20 1009.0 1008.8 -
10/12:30am 25.6 26.1 23.3 87 1.6 WSW 26 32 14 17 1009.3 1009.1 -
10/12:00am 25.8 26.3 23.3 86 1.7 WSW 26 33 14 18 1009.4 1009.2 -
 
Date/Time
WST
Temp
°C
App
Temp
°C
Dew
Point
°C
Rel
Hum
%
Delta-T
°C
Wind Press
QNH
hPa
Press
MSL
hPa
Rain since
9am
mm
Dir  Spd
km/h
Gust
km/h
Spd
kts
Gust
kts
09/11:30pm 25.8 26.3 23.3 86 1.7 WSW 26 33 14 18 1009.2 1009.0 -
09/11:00pm 25.8 26.5 23.7 88 1.4 WSW 26 35 14 19 1009.3 1009.1 -
09/10:30pm 26.0 26.4 23.7 87 1.6 WSW 28 35 15 19 1009.4 1009.2 -
09/10:00pm 26.2 25.6 23.3 84 2.0 WSW 32 39 17 21 1009.2 1009.0 -

Other Formats:

Comma delimited format used in spreadsheet applications
http://www.bom.gov.au/fwo/IDW60801/IDW60801.94307.axf

JavaScript Object Notation format (JSON) in row-major order
http://www.bom.gov.au/fwo/IDW60801/IDW60801.94307.json